Time;durP1;ratioP1;P1;durP2;ratioP2;P2;SDS_P1;SDS_P2;PMS_P1;PMS_P2;Temp;Humidity;BMP_temperature;BMP_pressure;BME280_temperature;BME280_humidity;BME280_pressure;Samples;Min_cycle;Max_cycle;Signal;HPM_P1;HPM_P2
2023/01/29 00:01:55;;;;;;;14.90;8.45;;;3.00;99.90;;;;;;4951476;29;20212;-49
2023/01/29 00:04:22;;;;;;;13.32;9.32;;;2.70;99.90;;;;;;4951458;29;20253;-51
2023/01/29 00:06:48;;;;;;;12.52;8.88;;;2.80;99.90;;;;;;4934409;29;20216;-50
2023/01/29 00:09:16;;;;;;;13.32;9.02;;;2.60;99.90;;;;;;4969823;22;20611;-47
2023/01/29 00:11:43;;;;;;;10.95;9.57;;;2.80;99.90;;;;;;4970383;28;20507;-48
2023/01/29 00:14:10;;;;;;;15.32;9.70;;;2.80;99.90;;;;;;4970348;28;20671;-48
2023/01/29 00:16:36;;;;;;;11.60;9.38;;;2.70;99.90;;;;;;4970375;28;20199;-47
2023/01/29 00:19:03;;;;;;;12.52;9.05;;;2.50;99.90;;;;;;4969532;28;20227;-47
2023/01/29 00:21:30;;;;;;;11.85;10.48;;;3.20;99.90;;;;;;4970188;28;20202;-48
2023/01/29 00:23:58;;;;;;;12.90;10.25;;;2.90;99.90;;;;;;4952952;28;20238;-48
2023/01/29 00:26:27;;;;;;;12.30;9.75;;;2.80;99.90;;;;;;4970543;28;20203;-48
2023/01/29 00:28:55;;;;;;;10.55;8.95;;;2.80;99.90;;;;;;4969687;28;20690;-47
2023/01/29 00:31:24;;;;;;;15.13;10.77;;;2.80;99.90;;;;;;4969475;28;20198;-47
2023/01/29 00:33:51;;;;;;;13.38;10.05;;;3.00;99.90;;;;;;4952455;28;20226;-48
2023/01/29 00:36:19;;;;;;;13.90;10.40;;;2.90;99.90;;;;;;4969968;28;20202;-48
2023/01/29 00:38:53;;;;;;;15.15;9.98;;;3.00;99.90;;;;;;4969382;28;20230;-47
2023/01/29 00:46:51;;;;;;;11.63;10.40;;;3.20;99.90;;;;;;4973255;28;20218;-47
2023/01/29 00:49:18;;;;;;;14.73;11.27;;;2.80;99.90;;;;;;4955385;28;20248;-47
2023/01/29 00:52:22;;;;;;;15.18;10.05;;;3.00;99.90;;;;;;4973142;28;20194;-48
2023/01/29 00:54:31;;;;;;;11.80;9.65;;;3.10;99.90;;;;;;4972916;28;20722;-47
2023/01/29 00:56:58;;;;;;;14.63;11.60;;;2.80;99.90;;;;;;4955675;28;20734;-48
2023/01/29 00:59:26;;;;;;;15.50;12.88;;;3.00;99.90;;;;;;4972593;28;20233;-48
2023/01/29 01:04:37;;;;;;;15.20;11.63;;;3.20;99.90;;;;;;4955537;28;20212;-48
2023/01/29 01:07:03;;;;;;;14.68;11.18;;;3.00;99.90;;;;;;4973196;28;20198;-48
2023/01/29 01:12:13;;;;;;;15.98;12.60;;;2.70;99.90;;;;;;4943078;28;20218;-48
2023/01/29 01:14:42;;;;;;;14.02;11.95;;;3.40;99.90;;;;;;4972796;28;20206;-47
2023/01/29 01:17:09;;;;;;;17.58;10.65;;;3.10;99.90;;;;;;4955524;28;20685;-48
2023/01/29 01:19:36;;;;;;;18.15;11.90;;;2.90;99.90;;;;;;4972392;28;20238;-47
2023/01/29 01:22:03;;;;;;;14.35;11.73;;;3.10;99.90;;;;;;4955621;28;20218;-48
2023/01/29 01:24:30;;;;;;;18.05;13.00;;;3.20;99.90;;;;;;4973421;28;20671;-47
2023/01/29 01:26:57;;;;;;;14.45;12.18;;;2.80;99.90;;;;;;4973269;28;20214;-48
2023/01/29 01:29:23;;;;;;;13.85;12.20;;;2.90;99.90;;;;;;4955210;28;20242;-47
2023/01/29 01:31:53;;;;;;;14.20;12.70;;;3.70;99.90;;;;;;4973159;28;20252;-48
2023/01/29 01:34:20;;;;;;;15.68;12.23;;;2.90;99.90;;;;;;4955831;28;20211;-48
2023/01/29 01:36:47;;;;;;;18.42;13.43;;;2.90;99.90;;;;;;4955708;28;20238;-47
2023/01/29 01:39:14;;;;;;;19.27;13.05;;;2.90;99.90;;;;;;4954792;28;20324;-48
2023/01/29 01:41:41;;;;;;;20.55;14.02;;;3.30;99.90;;;;;;4955369;28;20207;-47
2023/01/29 01:44:23;;;;;;;20.40;12.10;;;3.60;99.90;;;;;;4954957;28;20232;-47
2023/01/29 01:46:51;;;;;;;15.80;13.57;;;3.10;99.90;;;;;;4971673;28;20663;-47
2023/01/29 01:49:20;;;;;;;18.40;14.07;;;3.50;99.90;;;;;;4971830;28;20207;-48
2023/01/29 01:51:50;;;;;;;17.58;14.15;;;3.20;99.90;;;;;;4954972;28;20199;-46
2023/01/29 01:54:21;;;;;;;17.50;12.90;;;3.20;99.90;;;;;;4972434;28;20191;-47
2023/01/29 01:56:53;;;;;;;19.42;13.15;;;3.30;99.90;;;;;;4953813;28;20297;-48
2023/01/29 01:59:20;;;;;;;17.73;13.57;;;2.90;99.90;;;;;;4954415;28;20234;-48
2023/01/29 02:01:53;;;;;;;19.50;13.27;;;3.20;99.90;;;;;;4954715;28;20198;-49
2023/01/29 02:10:00;;;;;;;17.88;14.25;;;3.20;99.90;;;;;;4971620;28;20221;-47
2023/01/29 02:12:29;;;;;;;18.40;13.93;;;3.00;99.90;;;;;;4972351;28;20209;-47
2023/01/29 02:14:57;;;;;;;17.38;13.50;;;3.20;99.90;;;;;;4972331;28;20194;-47
2023/01/29 02:17:25;;;;;;;17.73;14.52;;;2.90;99.90;;;;;;4954623;28;20206;-47
2023/01/29 02:20:01;;;;;;;25.73;14.98;;;3.20;99.90;;;;;;4971398;28;20227;-47
2023/01/29 02:23:00;;;;;;;19.48;15.07;;;2.60;99.90;;;;;;4971877;28;20682;-47
2023/01/29 02:25:41;;;;;;;18.33;13.60;;;2.90;99.90;;;;;;4954722;28;20217;-48
2023/01/29 02:28:20;;;;;;;18.17;13.18;;;2.90;99.90;;;;;;4954414;28;20198;-48
2023/01/29 02:30:53;;;;;;;17.00;14.20;;;3.30;99.90;;;;;;4971760;28;20702;-48
2023/01/29 02:33:41;;;;;;;17.50;14.25;;;3.20;99.90;;;;;;4971769;28;20190;-48
2023/01/29 02:36:15;;;;;;;20.98;13.95;;;2.90;99.90;;;;;;4971863;28;20225;-48
2023/01/29 02:38:50;;;;;;;20.33;13.90;;;3.00;99.90;;;;;;4953954;28;20260;-48
2023/01/29 02:41:25;;;;;;;19.23;13.27;;;3.10;99.90;;;;;;4970358;28;20296;-47
2023/01/29 02:43:58;;;;;;;19.10;14.45;;;3.00;99.90;;;;;;4971610;28;20210;-48
2023/01/29 02:46:32;;;;;;;20.25;13.77;;;2.50;99.90;;;;;;4971716;28;20713;-47
2023/01/29 02:49:06;;;;;;;17.70;13.50;;;2.90;99.90;;;;;;4971125;28;20234;-47
2023/01/29 02:51:38;;;;;;;14.55;12.25;;;3.10;99.90;;;;;;4970980;28;20194;-48
2023/01/29 02:54:11;;;;;;;19.90;14.52;;;3.10;99.90;;;;;;4955280;28;20211;-47
2023/01/29 02:56:44;;;;;;;23.40;15.25;;;2.90;99.90;;;;;;4954952;28;20217;-49
2023/01/29 02:59:17;;;;;;;20.77;14.90;;;3.00;99.90;;;;;;4954337;28;20226;-47
2023/01/29 03:01:48;;;;;;;18.73;14.57;;;3.50;99.90;;;;;;4954450;28;20206;-47
2023/01/29 03:04:22;;;;;;;19.75;14.85;;;2.50;99.90;;;;;;4954831;28;20662;-46
2023/01/29 03:06:53;;;;;;;18.50;14.20;;;3.10;99.90;;;;;;4971919;28;20205;-47
2023/01/29 03:09:25;;;;;;;25.17;14.68;;;3.30;99.90;;;;;;4953891;28;20230;-47
2023/01/29 03:11:57;;;;;;;17.00;13.15;;;3.10;99.90;;;;;;4971590;28;20210;-47
2023/01/29 03:15:10;;;;;;;18.63;13.77;;;3.70;99.90;;;;;;4954024;28;20336;-46
2023/01/29 03:17:28;;;;;;;16.27;13.63;;;3.30;99.90;;;;;;4953802;28;20750;-48
2023/01/29 03:19:56;;;;;;;21.73;14.00;;;3.40;99.90;;;;;;4953376;28;20233;-47
2023/01/29 03:22:24;;;;;;;25.08;16.23;;;3.20;99.90;;;;;;4953851;28;20628;-46
2023/01/29 03:33:39;;;;;;;23.63;14.88;;;3.40;99.90;;;;;;4953460;28;20230;-46
2023/01/29 03:36:10;;;;;;;21.02;14.43;;;3.20;99.90;;;;;;4970743;28;20199;-47
2023/01/29 03:38:36;;;;;;;17.15;14.05;;;3.40;99.90;;;;;;4952902;28;20309;-46
2023/01/29 03:41:10;;;;;;;19.80;15.43;;;3.40;99.90;;;;;;4953296;28;20241;-48
2023/01/29 03:43:45;;;;;;;18.45;15.05;;;3.50;99.90;;;;;;4953303;28;20201;-47
2023/01/29 03:46:27;;;;;;;19.65;14.48;;;3.40;99.90;;;;;;4953193;28;20206;-48
2023/01/29 03:49:01;;;;;;;19.15;14.40;;;3.00;99.90;;;;;;4970441;28;20230;-47
2023/01/29 03:51:33;;;;;;;23.88;17.08;;;3.40;99.90;;;;;;4953205;28;20203;-47
2023/01/29 03:54:07;;;;;;;22.08;16.02;;;3.40;99.90;;;;;;4953258;28;20209;-47
2023/01/29 03:56:43;;;;;;;20.50;14.20;;;3.50;99.90;;;;;;4953195;28;20211;-48
2023/01/29 03:59:21;;;;;;;18.70;13.95;;;3.40;99.90;;;;;;4952669;28;20222;-48
2023/01/29 04:02:13;;;;;;;20.30;14.63;;;3.40;99.90;;;;;;4930458;28;20211;-48
2023/01/29 04:04:44;;;;;;;17.48;14.55;;;2.70;99.90;;;;;;4952973;28;20210;-48
2023/01/29 04:07:14;;;;;;;19.60;15.23;;;3.10;99.90;;;;;;4952981;28;20213;-48
2023/01/29 04:09:46;;;;;;;17.92;13.80;;;3.30;99.90;;;;;;4952439;28;20713;-48
2023/01/29 04:12:17;;;;;;;18.55;15.52;;;3.40;99.90;;;;;;4952815;28;20234;-47
2023/01/29 04:14:45;;;;;;;18.52;14.52;;;3.40;99.90;;;;;;4952902;28;20206;-47
2023/01/29 04:17:17;;;;;;;25.13;16.27;;;3.20;99.90;;;;;;4952880;28;20539;-48
2023/01/29 04:20:04;;;;;;;18.90;13.90;;;3.40;99.90;;;;;;4951659;28;20231;-47
2023/01/29 04:22:33;;;;;;;29.80;18.58;;;3.10;99.90;;;;;;4952515;28;20218;-47
2023/01/29 04:25:07;;;;;;;21.85;16.02;;;3.40;99.90;;;;;;4952713;28;20293;-47
2023/01/29 04:27:45;;;;;;;17.17;14.52;;;3.10;99.90;;;;;;4952753;28;20207;-48
2023/01/29 04:30:25;;;;;;;20.17;15.13;;;3.40;99.90;;;;;;4969351;28;20559;-48
2023/01/29 04:33:03;;;;;;;21.23;14.95;;;3.20;99.90;;;;;;4952631;28;20207;-48
2023/01/29 04:35:37;;;;;;;20.13;14.90;;;3.20;99.90;;;;;;4952710;28;20289;-48
2023/01/29 04:38:11;;;;;;;22.25;14.98;;;3.50;99.90;;;;;;4952520;28;20286;-48
2023/01/29 04:40:48;;;;;;;20.23;15.25;;;3.30;99.90;;;;;;4969695;28;20293;-47
2023/01/29 04:43:21;;;;;;;18.95;14.90;;;3.30;99.90;;;;;;4969808;28;20543;-47
2023/01/29 04:46:02;;;;;;;25.38;17.27;;;3.10;99.90;;;;;;4969953;28;20203;-47
2023/01/29 04:48:36;;;;;;;23.90;16.10;;;3.10;99.90;;;;;;4969747;28;20241;-48
2023/01/29 04:51:10;;;;;;;24.25;15.55;;;3.20;99.90;;;;;;4952561;28;20202;-48
2023/01/29 04:53:46;;;;;;;21.38;15.43;;;3.50;99.90;;;;;;4952499;28;20202;-47
2023/01/29 04:56:20;;;;;;;19.23;15.00;;;3.50;99.90;;;;;;4952606;28;20206;-47
2023/01/29 04:58:51;;;;;;;21.65;15.65;;;3.30;99.90;;;;;;4969583;28;20598;-48
2023/01/29 05:01:21;;;;;;;25.33;17.23;;;3.20;99.90;;;;;;4969888;28;20539;-46
2023/01/29 05:03:51;;;;;;;25.88;17.63;;;3.40;99.90;;;;;;4969811;28;20694;-47
2023/01/29 05:06:20;;;;;;;24.95;16.98;;;3.20;99.90;;;;;;4969841;28;20205;-47
2023/01/29 05:08:48;;;;;;;28.65;16.88;;;3.30;99.90;;;;;;4969424;28;20218;-48
2023/01/29 05:11:16;;;;;;;25.25;17.00;;;3.00;99.90;;;;;;4970046;28;20245;-47
2023/01/29 05:13:43;;;;;;;22.85;17.38;;;3.40;99.90;;;;;;4969841;28;20206;-47
2023/01/29 05:16:15;;;;;;;26.58;17.05;;;3.60;99.90;;;;;;4970209;28;20195;-48
2023/01/29 05:18:42;;;;;;;23.48;16.55;;;3.10;99.90;;;;;;4969729;28;20670;-47
2023/01/29 05:21:10;;;;;;;20.27;17.42;;;3.40;99.90;;;;;;4969883;28;20230;-47
2023/01/29 05:23:37;;;;;;;26.15;17.48;;;3.20;99.90;;;;;;4969816;28;20207;-46
2023/01/29 05:26:04;;;;;;;22.20;17.33;;;2.70;99.90;;;;;;4969796;28;20207;-48
2023/01/29 05:28:30;;;;;;;21.67;16.48;;;3.20;99.90;;;;;;4969093;28;20199;-47
2023/01/29 05:30:57;;;;;;;21.57;17.10;;;3.00;99.90;;;;;;4971083;28;20189;-47
2023/01/29 05:33:26;;;;;;;24.00;18.10;;;3.30;99.90;;;;;;4972689;28;20474;-48
2023/01/29 05:35:54;;;;;;;31.27;18.20;;;3.40;99.90;;;;;;4972610;28;20209;-47
2023/01/29 05:38:23;;;;;;;24.83;17.95;;;3.10;99.90;;;;;;4972283;28;20190;-48
2023/01/29 05:40:49;;;;;;;25.50;17.25;;;3.40;99.90;;;;;;4972414;28;20226;-48
2023/01/29 05:43:17;;;;;;;25.45;18.67;;;3.40;99.90;;;;;;4972525;28;20195;-47
2023/01/29 05:45:52;;;;;;;30.83;18.30;;;2.60;99.90;;;;;;4972391;28;20199;-46
2023/01/29 05:48:19;;;;;;;31.92;19.73;;;3.40;99.90;;;;;;4972041;28;20339;-47
2023/01/29 05:50:46;;;;;;;23.77;18.45;;;3.60;99.90;;;;;;4972310;28;20226;-48
2023/01/29 05:53:12;;;;;;;25.95;18.30;;;3.50;99.90;;;;;;4972336;28;20202;-47
2023/01/29 05:55:43;;;;;;;25.20;18.35;;;3.30;99.90;;;;;;4972322;28;20690;-47
2023/01/29 05:58:10;;;;;;;28.02;18.33;;;3.40;99.90;;;;;;4971781;28;20215;-48
2023/01/29 06:00:37;;;;;;;27.17;19.15;;;3.50;99.90;;;;;;4971978;28;20214;-47
2023/01/29 06:03:03;;;;;;;22.75;17.70;;;3.50;99.90;;;;;;4972219;28;20476;-48
2023/01/29 06:05:30;;;;;;;26.48;18.52;;;3.50;99.90;;;;;;4972456;28;20206;-48
2023/01/29 06:07:57;;;;;;;23.00;17.10;;;3.40;99.90;;;;;;4972076;28;20202;-48
2023/01/29 06:10:24;;;;;;;28.40;19.27;;;3.40;99.90;;;;;;4994344;22;20242;-50
2023/01/29 06:12:52;;;;;;;28.05;20.17;;;2.70;99.90;;;;;;4972413;28;20205;-49
2023/01/29 06:15:19;;;;;;;28.17;18.85;;;3.70;99.90;;;;;;4972696;28;20227;-50
2023/01/29 06:17:46;;;;;;;26.50;18.23;;;3.50;99.90;;;;;;4972653;28;20205;-50
2023/01/29 06:20:13;;;;;;;27.00;18.42;;;3.40;99.90;;;;;;4972249;28;20234;-51
2023/01/29 06:22:40;;;;;;;33.08;20.05;;;3.50;99.90;;;;;;4972445;28;20252;-48
2023/01/29 06:25:08;;;;;;;29.42;20.60;;;3.50;99.90;;;;;;4972455;28;20195;-48
2023/01/29 06:27:34;;;;;;;29.95;20.95;;;3.50;99.90;;;;;;5039386;28;20199;-48
2023/01/29 06:30:03;;;;;;;28.25;19.90;;;3.40;99.90;;;;;;4971923;28;20223;-51
2023/01/29 06:32:30;;;;;;;28.25;20.15;;;3.50;99.90;;;;;;4972335;28;20663;-48
2023/01/29 06:34:56;;;;;;;29.20;18.77;;;3.30;99.90;;;;;;4972152;28;20206;-50
2023/01/29 06:37:23;;;;;;;26.33;18.77;;;3.40;99.90;;;;;;4972178;28;20207;-49
2023/01/29 06:39:50;;;;;;;30.35;20.65;;;3.40;99.90;;;;;;4971915;28;20294;-48
2023/01/29 06:42:16;;;;;;;25.55;19.00;;;3.30;99.90;;;;;;5038285;28;20297;-49
2023/01/29 06:44:44;;;;;;;28.30;19.58;;;3.60;99.90;;;;;;4972106;28;20231;-49
2023/01/29 06:47:12;;;;;;;27.48;20.40;;;3.50;99.90;;;;;;4972148;28;20538;-49
2023/01/29 06:49:39;;;;;;;30.70;20.90;;;3.60;99.90;;;;;;4971545;28;20211;-49
2023/01/29 06:52:05;;;;;;;34.65;19.77;;;3.50;99.90;;;;;;4972104;28;20198;-50
2023/01/29 06:54:32;;;;;;;24.42;17.90;;;3.50;99.90;;;;;;5038705;28;20690;-49
2023/01/29 06:56:58;;;;;;;28.48;18.50;;;3.00;99.90;;;;;;4971886;28;20190;-49
2023/01/29 06:59:25;;;;;;;29.25;20.58;;;3.30;99.90;;;;;;4971500;28;20230;-50
2023/01/29 07:01:51;;;;;;;28.52;19.42;;;3.70;99.90;;;;;;4971856;28;20233;-49
2023/01/29 07:04:19;;;;;;;33.40;20.58;;;3.00;99.90;;;;;;4972336;28;20202;-49
2023/01/29 07:06:46;;;;;;;30.30;19.58;;;3.50;99.90;;;;;;4971860;28;20210;-48
2023/01/29 07:09:13;;;;;;;32.75;20.63;;;3.50;99.90;;;;;;4971261;28;20235;-56
2023/01/29 07:11:40;;;;;;;31.63;20.10;;;3.50;99.90;;;;;;4972226;28;20555;-48
2023/01/29 07:14:07;;;;;;;27.35;19.52;;;3.60;99.90;;;;;;4971880;28;20207;-48
2023/01/29 07:16:34;;;;;;;28.95;19.85;;;3.50;99.90;;;;;;4972002;28;20198;-48
2023/01/29 07:19:00;;;;;;;32.55;21.73;;;3.60;99.90;;;;;;4971519;28;20207;-48
2023/01/29 07:21:29;;;;;;;28.23;20.65;;;3.70;99.90;;;;;;4971585;28;20300;-48
2023/01/29 07:23:55;;;;;;;26.38;19.30;;;3.60;99.90;;;;;;4971557;28;20253;-48
2023/01/29 07:26:22;;;;;;;31.42;20.92;;;3.80;99.90;;;;;;4971632;28;20203;-48
2023/01/29 07:28:48;;;;;;;30.65;20.83;;;3.60;99.90;;;;;;4971235;28;20199;-49
2023/01/29 07:31:15;;;;;;;33.88;21.25;;;3.50;99.90;;;;;;4971723;28;20199;-48
2023/01/29 07:33:43;;;;;;;26.55;19.13;;;3.60;99.90;;;;;;4971621;28;20199;-50
2023/01/29 07:36:10;;;;;;;30.42;20.65;;;3.60;99.90;;;;;;4971369;28;20256;-48
2023/01/29 07:38:38;;;;;;;32.33;21.13;;;3.80;99.90;;;;;;4970908;28;20195;-48
2023/01/29 07:41:05;;;;;;;30.10;21.38;;;3.70;99.90;;;;;;4971357;28;20230;-49
2023/01/29 07:43:32;;;;;;;32.17;21.35;;;3.70;99.90;;;;;;4971241;28;20486;-49
2023/01/29 07:46:02;;;;;;;27.88;19.58;;;3.70;99.90;;;;;;4971140;28;20207;-49
2023/01/29 07:48:29;;;;;;;27.23;19.50;;;3.60;99.90;;;;;;4970952;28;20248;-50
2023/01/29 07:50:56;;;;;;;29.20;21.33;;;3.20;99.90;;;;;;4970964;28;20725;-49
2023/01/29 07:53:23;;;;;;;31.35;21.30;;;3.80;99.90;;;;;;4970600;28;20199;-49
2023/01/29 07:55:51;;;;;;;28.60;20.65;;;3.70;99.90;;;;;;4970609;28;20198;-49
2023/01/29 07:58:18;;;;;;;31.00;20.92;;;3.80;99.90;;;;;;4970652;28;20663;-47
2023/01/29 08:00:45;;;;;;;30.52;21.40;;;3.00;99.90;;;;;;4970799;28;20595;-49
2023/01/29 08:03:14;;;;;;;27.55;21.20;;;3.20;99.90;;;;;;4970808;28;20209;-47
2023/01/29 08:05:41;;;;;;;27.73;20.15;;;3.80;99.90;;;;;;5037747;28;20226;-49
2023/01/29 08:08:08;;;;;;;31.92;22.50;;;3.70;99.90;;;;;;4970851;28;20206;-49
2023/01/29 08:10:35;;;;;;;29.85;19.85;;;4.30;99.90;;;;;;4970766;28;20234;-49
2023/01/29 08:13:04;;;;;;;30.80;20.83;;;3.30;99.90;;;;;;4971478;28;20205;-49
2023/01/29 08:15:32;;;;;;;32.40;23.15;;;3.10;99.90;;;;;;4971377;28;20602;-49
2023/01/29 08:18:00;;;;;;;31.85;21.83;;;3.30;99.90;;;;;;4970982;28;20222;-49
2023/01/29 08:20:27;;;;;;;33.58;20.35;;;3.70;99.90;;;;;;4970766;28;20218;-49
2023/01/29 08:22:59;;;;;;;32.38;20.08;;;4.20;99.90;;;;;;4970685;28;20223;-48
2023/01/29 08:25:26;;;;;;;34.97;20.25;;;3.20;99.90;;;;;;4970519;28;20202;-49
2023/01/29 08:27:53;;;;;;;28.92;20.33;;;3.90;99.90;;;;;;4970466;28;20619;-50
2023/01/29 08:30:21;;;;;;;33.25;20.00;;;3.80;99.90;;;;;;4970127;28;20221;-50
2023/01/29 08:32:47;;;;;;;30.02;20.65;;;3.60;99.90;;;;;;4970646;28;20205;-49
2023/01/29 08:35:14;;;;;;;29.88;20.00;;;3.80;99.90;;;;;;4970867;28;20605;-49
2023/01/29 08:37:41;;;;;;;34.30;22.10;;;3.50;99.90;;;;;;4970369;28;20201;-49
2023/01/29 08:40:11;;;;;;;33.45;21.85;;;3.70;99.90;;;;;;4969889;28;20223;-49
2023/01/29 08:42:37;;;;;;;35.72;21.23;;;3.70;99.90;;;;;;4970327;28;20222;-49
2023/01/29 08:45:05;;;;;;;31.55;21.70;;;3.80;99.90;;;;;;4970580;28;20215;-49
2023/01/29 08:47:33;;;;;;;35.80;21.25;;;3.80;99.90;;;;;;4970309;28;20325;-49
2023/01/29 08:49:59;;;;;;;30.88;20.10;;;3.20;99.90;;;;;;4969797;28;20215;-48
2023/01/29 08:52:26;;;;;;;28.35;21.40;;;3.80;99.90;;;;;;4970263;28;20202;-49
2023/01/29 08:54:52;;;;;;;30.38;20.70;;;4.10;99.90;;;;;;4970409;28;20203;-49
2023/01/29 08:57:19;;;;;;;27.13;19.65;;;4.10;99.90;;;;;;4970196;28;20663;-49
2023/01/29 08:59:45;;;;;;;29.20;21.48;;;4.00;99.90;;;;;;4969821;28;20218;-48
2023/01/29 09:02:12;;;;;;;32.92;22.55;;;3.70;99.90;;;;;;4970183;28;20229;-49
2023/01/29 09:04:40;;;;;;;33.40;24.33;;;4.00;99.90;;;;;;4970345;28;20195;-48
2023/01/29 09:07:06;;;;;;;34.78;23.00;;;4.10;99.90;;;;;;4973406;28;20206;-49
2023/01/29 09:09:33;;;;;;;33.40;22.88;;;4.00;99.90;;;;;;4972969;28;20249;-49
2023/01/29 09:12:00;;;;;;;30.67;21.05;;;3.90;99.90;;;;;;4973469;28;20206;-49
2023/01/29 09:14:27;;;;;;;28.52;22.13;;;4.20;99.90;;;;;;4973528;28;20686;-50
2023/01/29 09:16:53;;;;;;;28.27;19.70;;;4.10;99.90;;;;;;4973533;28;20344;-49
2023/01/29 09:19:20;;;;;;;30.42;20.60;;;4.20;99.90;;;;;;4972755;28;20222;-49
2023/01/29 09:21:48;;;;;;;30.50;21.17;;;4.20;99.90;;;;;;4973120;28;20222;-49
2023/01/29 09:24:15;;;;;;;28.83;20.10;;;4.00;99.90;;;;;;4973190;28;20207;-49
2023/01/29 09:26:41;;;;;;;28.15;21.75;;;4.30;99.90;;;;;;4972874;28;20198;-49
2023/01/29 09:29:10;;;;;;;29.17;22.45;;;4.30;99.90;;;;;;4972702;28;20209;-48
2023/01/29 09:31:36;;;;;;;29.98;21.15;;;4.40;99.90;;;;;;4973191;28;20201;-48
2023/01/29 09:34:03;;;;;;;30.45;21.30;;;4.40;99.90;;;;;;4973045;28;20206;-50
2023/01/29 09:36:29;;;;;;;31.98;20.83;;;4.20;99.90;;;;;;4973229;28;20733;-49
2023/01/29 09:38:58;;;;;;;26.25;18.52;;;4.70;99.90;;;;;;4972648;28;20195;-49
2023/01/29 09:41:41;;;;;;;37.40;22.65;;;4.50;99.90;;;;;;4972853;28;20649;-49
2023/01/29 09:44:16;;;;;;;28.13;20.70;;;4.70;99.90;;;;;;4972931;28;20249;-49
2023/01/29 09:46:46;;;;;;;33.15;20.63;;;4.60;99.90;;;;;;4972934;28;20245;-50
2023/01/29 09:49:18;;;;;;;29.27;19.95;;;4.40;99.90;;;;;;4972257;28;20223;-50
2023/01/29 09:51:49;;;;;;;26.55;19.92;;;4.90;99.90;;;;;;4972730;28;20199;-49
2023/01/29 09:54:24;;;;;;;26.70;18.77;;;4.90;99.90;;;;;;5039991;28;20210;-50
2023/01/29 09:56:54;;;;;;;33.13;20.00;;;4.70;99.90;;;;;;4973229;28;20565;-49
2023/01/29 09:59:23;;;;;;;25.58;19.48;;;4.50;99.90;;;;;;5039174;28;20258;-49
2023/01/29 10:01:59;;;;;;;31.30;20.50;;;4.70;99.90;;;;;;4972777;28;20301;-48
2023/01/29 10:04:52;;;;;;;28.15;20.70;;;4.70;99.90;;;;;;4972648;28;20215;-50
2023/01/29 10:07:32;;;;;;;28.80;19.98;;;4.90;99.90;;;;;;4972515;28;20207;-49
2023/01/29 10:10:22;;;;;;;27.25;19.00;;;4.50;99.90;;;;;;4972764;28;20227;-49
2023/01/29 10:13:00;;;;;;;31.33;19.17;;;5.20;99.90;;;;;;4972869;28;20201;-50
2023/01/29 10:15:47;;;;;;;28.43;18.27;;;5.00;99.90;;;;;;4972150;28;20206;-49
2023/01/29 10:18:47;;;;;;;26.87;18.77;;;5.10;99.90;;;;;;4970734;28;20781;-49
2023/01/29 10:21:27;;;;;;;23.80;17.55;;;5.10;99.90;;;;;;4972503;28;20494;-50
2023/01/29 10:24:02;;;;;;;22.35;16.40;;;5.10;99.90;;;;;;4972487;28;20213;-50
2023/01/29 10:26:33;;;;;;;25.10;18.70;;;5.00;99.90;;;;;;4972528;28;20214;-49
2023/01/29 10:29:02;;;;;;;27.00;17.98;;;5.20;99.90;;;;;;4971832;28;20271;-48
2023/01/29 10:31:31;;;;;;;24.92;18.50;;;5.30;99.90;;;;;;4972266;28;20576;-48
2023/01/29 10:34:03;;;;;;;27.88;18.10;;;5.40;99.90;;;;;;4972345;28;20226;-49
2023/01/29 10:36:34;;;;;;;23.30;18.17;;;5.60;99.90;;;;;;5038650;28;20208;-50
2023/01/29 10:39:01;;;;;;;20.30;15.97;;;5.60;99.90;;;;;;4971598;28;20523;-48
2023/01/29 10:41:43;;;;;;;19.90;15.83;;;5.70;99.90;;;;;;4971618;28;20434;-49
2023/01/29 10:44:23;;;;;;;22.30;16.05;;;5.70;99.90;;;;;;4972189;28;20435;-50
2023/01/29 10:47:07;;;;;;;21.47;16.90;;;5.70;99.90;;;;;;4972007;28;20204;-48
2023/01/29 10:49:59;;;;;;;19.77;16.23;;;5.60;99.90;;;;;;4971386;28;20465;-49
2023/01/29 10:52:38;;;;;;;23.07;17.50;;;5.70;99.90;;;;;;4972363;28;20417;-49
2023/01/29 10:55:23;;;;;;;20.30;15.80;;;5.70;99.90;;;;;;4972559;28;20438;-50
2023/01/29 10:58:03;;;;;;;21.63;15.97;;;6.10;99.90;;;;;;4971739;28;20439;-49
2023/01/29 11:00:35;;;;;;;20.00;15.77;;;5.80;99.90;;;;;;4971521;28;20480;-49
2023/01/29 11:03:14;;;;;;;20.83;14.67;;;6.10;99.90;;;;;;4971730;28;20569;-49
2023/01/29 11:05:47;;;;;;;21.73;15.93;;;5.80;99.90;;;;;;4971597;28;20789;-49
2023/01/29 11:08:17;;;;;;;23.13;16.27;;;6.00;99.90;;;;;;4971121;28;20467;-49
2023/01/29 11:10:52;;;;;;;22.63;15.73;;;5.90;99.90;;;;;;4971541;28;20441;-50
2023/01/29 11:13:22;;;;;;;21.87;14.77;;;6.00;99.90;;;;;;4971555;28;20427;-49
2023/01/29 11:15:52;;;;;;;24.77;13.43;;;6.10;99.90;;;;;;4971455;28;20788;-49
2023/01/29 11:18:19;;;;;;;19.50;14.63;;;6.30;99.90;;;;;;4971049;28;20758;-49
2023/01/29 11:20:46;;;;;;;17.93;13.93;;;6.20;99.90;;;;;;4970829;28;20644;-49
2023/01/29 11:23:26;;;;;;;18.70;15.10;;;6.20;99.90;;;;;;4972046;28;20827;-49
2023/01/29 11:25:53;;;;;;;18.83;14.77;;;6.80;99.90;;;;;;4971603;28;20434;-48
2023/01/29 11:31:25;;;;;;;18.17;14.60;;;6.30;99.90;;;;;;5089413;28;20583;-50
2023/01/29 11:34:00;;;;;;;14.90;12.87;;;6.70;99.90;;;;;;5089612;28;20450;-49
2023/01/29 11:36:34;;;;;;;18.97;14.50;;;6.40;99.90;;;;;;5089373;28;20397;-49
2023/01/29 11:39:19;;;;;;;18.27;14.33;;;6.60;99.90;;;;;;5087684;28;20425;-50
2023/01/29 11:41:50;;;;;;;18.27;13.60;;;6.60;99.90;;;;;;5107365;22;20507;-50
2023/01/29 11:44:21;;;;;;;16.60;14.57;;;6.80;99.90;;;;;;5068916;28;20772;-49
2023/01/29 11:46:50;;;;;;;19.60;14.40;;;6.40;99.90;;;;;;5068732;28;20418;-51
2023/01/29 11:49:27;;;;;;;19.50;14.03;;;6.70;99.90;;;;;;5050127;28;20452;-49
2023/01/29 11:51:55;;;;;;;19.23;14.50;;;6.80;99.90;;;;;;5068944;28;20956;-50
2023/01/29 11:54:28;;;;;;;18.83;15.20;;;6.60;99.90;;;;;;5068726;28;20766;-50
2023/01/29 11:56:56;;;;;;;17.90;13.40;;;6.60;99.90;;;;;;5050555;28;20431;-51
2023/01/29 11:59:33;;;;;;;17.90;14.23;;;6.80;99.90;;;;;;5050338;28;20903;-51
2023/01/29 12:02:16;;;;;;;15.83;12.60;;;6.70;99.90;;;;;;5068436;28;20803;-50
2023/01/29 12:04:42;;;;;;;19.90;13.73;;;6.40;99.90;;;;;;5068693;28;20442;-51
2023/01/29 12:07:14;;;;;;;20.03;14.23;;;6.20;99.90;;;;;;5068453;28;20424;-50
2023/01/29 12:09:41;;;;;;;19.30;13.13;;;6.30;99.90;;;;;;5067989;28;20483;-50
2023/01/29 12:12:26;;;;;;;16.87;13.90;;;6.90;99.90;;;;;;5068719;28;20422;-53
2023/01/29 12:15:03;;;;;;;20.30;14.50;;;6.90;99.90;;;;;;5069142;28;20423;-51
2023/01/29 12:17:36;;;;;;;17.70;13.60;;;6.40;99.90;;;;;;5069107;28;20514;-51
2023/01/29 12:20:11;;;;;;;16.60;13.40;;;7.10;99.90;;;;;;5050720;28;20435;-49
2023/01/29 12:22:42;;;;;;;16.90;13.63;;;7.00;99.90;;;;;;5049950;28;20511;-50
2023/01/29 12:25:20;;;;;;;16.67;13.87;;;6.80;99.90;;;;;;5068410;28;20418;-50
2023/01/29 12:27:55;;;;;;;18.80;13.90;;;6.90;99.90;;;;;;5067825;28;20928;-50
2023/01/29 12:30:29;;;;;;;17.33;13.00;;;6.80;99.90;;;;;;5067701;28;20476;-50
2023/01/29 12:33:03;;;;;;;21.50;13.77;;;6.70;99.90;;;;;;5067592;28;20976;-49
2023/01/29 12:35:32;;;;;;;21.10;13.00;;;6.80;99.90;;;;;;5067510;28;20424;-50
2023/01/29 12:38:04;;;;;;;17.13;12.90;;;6.60;99.90;;;;;;5067675;28;20415;-50
2023/01/29 12:40:38;;;;;;;15.63;12.17;;;6.80;99.90;;;;;;5065675;28;20410;-50
2023/01/29 12:43:13;;;;;;;18.03;14.03;;;7.10;99.90;;;;;;5054121;28;20542;-52
2023/01/29 12:45:43;;;;;;;17.20;13.53;;;6.80;99.90;;;;;;5036495;28;20460;-50
2023/01/29 12:48:14;;;;;;;17.33;12.43;;;6.60;99.90;;;;;;5053597;28;20926;-50
2023/01/29 12:50:41;;;;;;;17.50;13.63;;;6.70;99.90;;;;;;5053987;28;20793;-49
2023/01/29 12:53:20;;;;;;;14.90;12.40;;;6.10;99.90;;;;;;5036196;28;20465;-50
2023/01/29 12:55:54;;;;;;;20.00;13.70;;;6.60;99.90;;;;;;5054104;28;20411;-48
2023/01/29 12:58:23;;;;;;;17.30;14.73;;;6.80;99.90;;;;;;5053698;28;20414;-49
2023/01/29 13:00:53;;;;;;;18.87;13.77;;;6.60;99.90;;;;;;5053789;28;20412;-50
2023/01/29 13:03:25;;;;;;;21.33;13.23;;;6.40;99.90;;;;;;5036069;28;20446;-49
2023/01/29 13:05:55;;;;;;;20.20;15.47;;;6.60;99.90;;;;;;5054218;28;20414;-49
2023/01/29 13:08:27;;;;;;;21.40;14.30;;;6.30;99.90;;;;;;5053404;28;20428;-50
2023/01/29 13:10:56;;;;;;;18.50;13.67;;;6.40;99.90;;;;;;5053747;28;20964;-51
2023/01/29 13:13:30;;;;;;;18.90;14.33;;;6.00;99.90;;;;;;5053909;28;20450;-51
2023/01/29 13:15:59;;;;;;;18.77;13.70;;;6.30;99.90;;;;;;5053954;28;20414;-49
2023/01/29 13:18:43;;;;;;;22.33;16.87;;;6.60;99.90;;;;;;5053487;28;20537;-50
2023/01/29 13:21:14;;;;;;;21.40;14.70;;;6.50;99.90;;;;;;5053645;28;20831;-48
2023/01/29 13:23:45;;;;;;;18.60;14.03;;;5.90;99.90;;;;;;5053807;28;20432;-50
2023/01/29 13:26:13;;;;;;;18.63;13.67;;;6.60;99.90;;;;;;5053350;28;20410;-49